createdAt,value
2018-10-06T00:01:29.696Z,59.48
2018-10-06T00:03:56.654Z,59.38
2018-10-06T00:06:23.522Z,59.01
2018-10-06T00:08:50.528Z,59.20
2018-10-06T00:11:17.554Z,58.94
2018-10-06T00:13:44.492Z,59.13
2018-10-06T00:16:11.644Z,58.97
2018-10-06T00:18:38.502Z,58.87
2018-10-06T00:21:05.392Z,59.00
2018-10-06T00:23:32.655Z,59.13
2018-10-06T00:25:59.561Z,59.39
2018-10-06T00:28:26.534Z,59.34
2018-10-06T00:30:53.608Z,59.45
2018-10-06T00:33:20.500Z,59.50
2018-10-06T00:35:47.394Z,59.27
2018-10-06T00:38:14.459Z,59.44
2018-10-06T00:40:42.131Z,59.45
2018-10-06T00:43:09.081Z,59.64
2018-10-06T00:45:36.095Z,59.62
2018-10-06T00:48:03.026Z,59.86
2018-10-06T00:50:29.944Z,59.83
2018-10-06T00:52:56.941Z,59.75
2018-10-06T00:55:23.862Z,59.94
2018-10-06T00:57:50.749Z,60.12
2018-10-06T01:00:18.095Z,60.12
2018-10-06T01:02:44.930Z,60.08
2018-10-06T01:05:11.815Z,60.34
2018-10-06T01:07:38.753Z,60.25
2018-10-06T01:10:05.803Z,60.44
2018-10-06T01:12:32.748Z,60.18
2018-10-06T01:14:59.885Z,60.55
2018-10-06T01:17:26.784Z,60.61
2018-10-06T01:19:53.705Z,60.48
2018-10-06T01:22:20.946Z,60.56
2018-10-06T01:24:47.826Z,60.35
2018-10-06T01:27:14.712Z,60.60
2018-10-06T01:29:41.731Z,60.59
2018-10-06T01:32:08.636Z,60.73
2018-10-06T01:34:35.548Z,60.95
2018-10-06T01:37:02.589Z,61.12
2018-10-06T01:39:29.919Z,61.14
2018-10-06T01:41:56.858Z,61.01
2018-10-06T01:44:23.886Z,61.18
2018-10-06T01:46:50.981Z,61.01
2018-10-06T01:49:17.869Z,61.08
2018-10-06T01:51:45.006Z,60.94
2018-10-06T01:54:11.969Z,61.31
2018-10-06T01:56:38.919Z,61.28
2018-10-06T01:59:06.026Z,61.41
2018-10-06T02:01:33.146Z,61.48
2018-10-06T02:04:00.024Z,61.29
2018-10-06T02:06:27.058Z,61.81
2018-10-06T02:08:53.940Z,61.63
2018-10-06T02:11:20.847Z,61.76
2018-10-06T02:13:47.843Z,61.20
2018-10-06T02:16:14.724Z,61.45
2018-10-06T02:18:41.694Z,61.08
2018-10-06T02:21:08.823Z,60.99
2018-10-06T02:23:35.795Z,60.97
2018-10-06T02:26:02.726Z,60.73
2018-10-06T02:28:29.790Z,60.54
2018-10-06T02:30:56.702Z,60.74
2018-10-06T02:33:23.633Z,60.43
2018-10-06T02:35:50.705Z,60.57
2018-10-06T02:38:17.545Z,60.56
2018-10-06T02:40:44.484Z,60.67
2018-10-06T02:43:11.469Z,60.77
2018-10-06T02:45:38.339Z,60.92
2018-10-06T02:48:05.292Z,61.00
2018-10-06T02:50:32.265Z,60.78
2018-10-06T02:52:59.200Z,61.16
2018-10-06T02:55:26.709Z,61.02
2018-10-06T02:57:54.423Z,61.16
2018-10-06T03:00:21.938Z,61.10
2018-10-06T03:02:49.540Z,61.47
2018-10-06T03:05:16.672Z,61.51
2018-10-06T03:07:44.203Z,61.31
2018-10-06T03:10:11.064Z,61.51
2018-10-06T03:12:38.210Z,61.33
2018-10-06T03:15:05.122Z,61.60
2018-10-06T03:17:32.138Z,61.44
2018-10-06T03:19:59.272Z,61.58
2018-10-06T03:22:26.207Z,61.43
2018-10-06T03:24:53.079Z,61.93
2018-10-06T03:27:20.191Z,62.11
2018-10-06T03:29:47.066Z,61.82
2018-10-06T03:32:13.919Z,61.92
2018-10-06T03:34:41.022Z,61.83
2018-10-06T03:37:07.917Z,61.70
2018-10-06T03:39:34.780Z,61.81
2018-10-06T03:42:02.539Z,62.00
2018-10-06T03:44:29.440Z,61.43
2018-10-06T03:46:56.335Z,61.65
2018-10-06T03:49:23.402Z,61.29
2018-10-06T03:51:50.285Z,61.59
2018-10-06T03:54:17.182Z,61.02
2018-10-06T03:56:44.290Z,61.23
2018-10-06T03:59:11.528Z,61.12
2018-10-06T04:01:38.441Z,61.37
2018-10-06T04:04:05.801Z,61.55
2018-10-06T04:06:32.755Z,61.43
2018-10-06T04:08:59.794Z,61.34
2018-10-06T04:11:27.007Z,61.16
2018-10-06T04:13:53.949Z,61.24
2018-10-06T04:16:20.816Z,61.21
2018-10-06T04:18:47.837Z,61.11
2018-10-06T04:21:14.802Z,60.95
2018-10-06T04:23:41.682Z,60.88
2018-10-06T04:26:08.908Z,60.95
2018-10-06T04:28:35.877Z,61.15
2018-10-06T04:31:02.792Z,61.19
2018-10-06T04:33:29.806Z,61.08
2018-10-06T04:35:56.674Z,61.15
2018-10-06T04:38:23.568Z,60.69
2018-10-06T04:40:50.798Z,60.88
2018-10-06T04:43:17.624Z,61.06
2018-10-06T04:45:44.508Z,61.16
2018-10-06T04:48:11.918Z,60.81
2018-10-06T04:50:38.844Z,60.71
2018-10-06T04:53:05.768Z,61.40
2018-10-06T04:55:33.198Z,61.07
2018-10-06T04:58:00.127Z,61.31
2018-10-06T05:00:27.002Z,61.06
2018-10-06T05:02:54.026Z,61.14
2018-10-06T05:05:21.145Z,61.00
2018-10-06T05:07:48.056Z,60.79
2018-10-06T05:10:15.092Z,60.69
2018-10-06T05:12:42.022Z,60.70
2018-10-06T05:15:08.910Z,60.85
2018-10-06T05:17:36.086Z,60.55
2018-10-06T05:20:03.655Z,61.00
2018-10-06T05:22:31.124Z,60.54
2018-10-06T05:24:58.735Z,60.63
2018-10-06T05:27:26.277Z,60.60
2018-10-06T05:29:53.798Z,60.57
2018-10-06T05:32:21.539Z,60.64
2018-10-06T05:34:49.059Z,60.55
2018-10-06T05:37:16.629Z,60.43
2018-10-06T05:39:43.769Z,60.63
2018-10-06T05:42:10.629Z,60.48
2018-10-06T05:44:38.146Z,60.38
2018-10-06T05:47:05.865Z,60.38
2018-10-06T05:49:33.379Z,60.19
2018-10-06T05:52:00.953Z,60.49
2018-10-06T05:54:28.576Z,60.60
2018-10-06T05:56:56.110Z,60.27
2018-10-06T05:59:23.637Z,60.51
2018-10-06T06:01:50.791Z,60.27
2018-10-06T06:04:17.693Z,60.39
2018-10-06T06:06:44.874Z,60.16
2018-10-06T06:09:11.807Z,60.11
2018-10-06T06:11:38.674Z,60.03
2018-10-06T06:14:05.599Z,60.13
2018-10-06T06:16:32.754Z,59.76
2018-10-06T06:18:59.684Z,60.14
2018-10-06T06:21:26.584Z,60.07
2018-10-06T06:23:53.948Z,60.11
2018-10-06T06:26:20.857Z,59.65
2018-10-06T06:28:47.790Z,59.80
2018-10-06T06:31:14.947Z,59.74
2018-10-06T06:33:41.839Z,60.02
2018-10-06T06:36:08.730Z,59.88
2018-10-06T06:38:35.745Z,59.69
2018-10-06T06:41:02.710Z,60.00
2018-10-06T06:43:29.640Z,59.62
2018-10-06T06:45:56.685Z,59.97
2018-10-06T06:48:23.550Z,59.50
2018-10-06T06:50:50.437Z,59.58
2018-10-06T06:53:17.590Z,59.60
2018-10-06T06:55:44.524Z,59.78
2018-10-06T06:58:11.452Z,59.73
2018-10-06T07:00:38.598Z,59.58
2018-10-06T07:03:05.490Z,59.64
2018-10-06T07:05:32.360Z,59.31
2018-10-06T07:07:59.626Z,59.38
2018-10-06T07:10:26.430Z,59.70
2018-10-06T07:12:53.533Z,59.17
2018-10-06T07:15:20.571Z,59.49
2018-10-06T07:17:47.485Z,59.81
2018-10-06T07:20:14.316Z,59.62
2018-10-06T07:22:41.469Z,59.29
2018-10-06T07:25:08.624Z,59.17
2018-10-06T07:27:35.502Z,59.28
2018-10-06T07:30:02.606Z,59.12
2018-10-06T07:32:29.545Z,59.16
2018-10-06T07:34:56.787Z,59.30
2018-10-06T07:37:23.977Z,58.93
2018-10-06T07:39:50.902Z,58.57
2018-10-06T07:42:18.455Z,58.87
2018-10-06T07:44:46.392Z,58.85
2018-10-06T07:47:13.852Z,58.62
2018-10-06T07:49:41.388Z,58.23
2018-10-06T07:52:09.171Z,58.46
2018-10-06T07:54:36.630Z,58.59
2018-10-06T07:57:04.240Z,58.07
2018-10-06T07:59:31.988Z,57.77
2018-10-06T08:01:59.503Z,57.92
2018-10-06T08:04:26.399Z,57.96
2018-10-06T08:06:53.449Z,57.75
2018-10-06T08:09:20.467Z,57.82
2018-10-06T08:11:47.334Z,57.71
2018-10-06T08:14:14.395Z,57.47
2018-10-06T08:16:41.248Z,57.23
2018-10-06T08:19:08.134Z,57.50
2018-10-06T08:21:35.085Z,57.11
2018-10-06T08:24:02.605Z,57.45
2018-10-06T08:26:29.587Z,56.92
2018-10-06T08:28:56.684Z,57.21
2018-10-06T08:31:23.563Z,56.91
2018-10-06T08:33:50.441Z,56.93
2018-10-06T08:36:17.448Z,56.58
2018-10-06T08:38:44.320Z,56.51
2018-10-06T08:41:11.148Z,56.71
2018-10-06T08:43:38.224Z,56.30
2018-10-06T08:46:05.235Z,56.43
2018-10-06T08:48:32.156Z,56.35
2018-10-06T08:50:59.229Z,55.73
2018-10-06T08:53:26.140Z,56.27
2018-10-06T08:55:53.124Z,56.33
2018-10-06T08:58:20.321Z,56.09
2018-10-06T09:00:47.175Z,55.76
2018-10-06T09:03:14.135Z,55.70
2018-10-06T09:05:41.301Z,55.80
2018-10-06T09:08:08.187Z,55.47
2018-10-06T09:10:35.404Z,55.36
2018-10-06T09:13:02.497Z,55.09
2018-10-06T09:15:29.364Z,55.41
2018-10-06T09:17:56.240Z,55.20
2018-10-06T09:20:23.504Z,55.13
2018-10-06T09:22:50.462Z,54.30
2018-10-06T09:25:17.335Z,54.30
2018-10-06T09:27:44.408Z,54.51
2018-10-06T09:30:11.259Z,53.76
2018-10-06T09:32:38.125Z,54.27
2018-10-06T09:35:05.382Z,53.91
2018-10-06T09:37:32.244Z,53.67
2018-10-06T09:39:59.167Z,52.64
2018-10-06T09:42:26.380Z,53.03
2018-10-06T09:44:53.259Z,52.47
2018-10-06T09:47:20.142Z,52.10
2018-10-06T09:49:47.341Z,51.61
2018-10-06T09:52:14.190Z,50.82
2018-10-06T09:54:41.090Z,50.87
2018-10-06T09:57:08.215Z,50.48
2018-10-06T09:59:35.887Z,50.57
2018-10-06T10:02:08.685Z,50.50
2018-10-06T10:04:36.926Z,49.64
2018-10-06T10:07:04.394Z,49.28
2018-10-06T10:09:31.867Z,49.18
2018-10-06T10:11:59.719Z,49.25
2018-10-06T10:14:27.145Z,49.16
2018-10-06T10:16:54.728Z,49.23
2018-10-06T10:19:22.527Z,49.29
2018-10-06T10:21:50.115Z,48.94
2018-10-06T10:24:17.552Z,49.33
2018-10-06T10:26:45.085Z,49.23
2018-10-06T10:29:12.524Z,48.82
2018-10-06T10:31:39.468Z,49.22
2018-10-06T10:34:06.601Z,48.54
2018-10-06T10:36:33.432Z,48.60
2018-10-06T10:39:00.934Z,48.32
2018-10-06T10:41:28.050Z,48.26
2018-10-06T10:43:54.896Z,48.15
2018-10-06T10:46:21.768Z,47.85
2018-10-06T10:48:48.903Z,48.38
2018-10-06T10:51:15.738Z,47.81
2018-10-06T10:53:42.633Z,47.89
2018-10-06T10:56:09.593Z,47.57
2018-10-06T10:58:36.468Z,47.68
2018-10-06T11:01:03.374Z,48.03
2018-10-06T11:03:30.510Z,47.70
2018-10-06T11:05:57.497Z,47.26
2018-10-06T11:08:24.392Z,47.68
2018-10-06T11:10:51.392Z,46.98
2018-10-06T11:13:18.462Z,46.98
2018-10-06T11:15:45.316Z,46.91
2018-10-06T11:18:12.353Z,45.82
2018-10-06T11:20:39.283Z,45.71
2018-10-06T11:23:06.761Z,45.73
2018-10-06T11:25:34.549Z,45.31
2018-10-06T11:28:02.060Z,44.74
2018-10-06T11:30:28.943Z,44.91
2018-10-06T11:32:56.079Z,44.95
2018-10-06T11:35:23.588Z,45.41
2018-10-06T11:37:51.302Z,44.63
2018-10-06T11:40:18.889Z,43.96
2018-10-06T11:42:45.728Z,44.44
2018-10-06T11:45:12.598Z,43.49
2018-10-06T11:47:39.644Z,43.01
2018-10-06T11:50:06.740Z,42.85
2018-10-06T11:52:33.694Z,43.37
2018-10-06T11:55:00.626Z,43.18
2018-10-06T11:57:27.508Z,43.28
2018-10-06T11:59:54.404Z,43.48
2018-10-06T12:02:21.356Z,43.37
2018-10-06T12:04:48.214Z,43.49
2018-10-06T12:07:15.115Z,42.84
2018-10-06T12:09:42.104Z,42.34
2018-10-06T12:12:08.994Z,42.69
2018-10-06T12:14:35.953Z,42.64
2018-10-06T12:17:02.908Z,42.33
2018-10-06T12:19:29.764Z,41.85
2018-10-06T12:21:56.756Z,41.76
2018-10-06T12:24:23.916Z,41.88
2018-10-06T12:26:50.843Z,40.84
2018-10-06T12:29:17.773Z,41.05
2018-10-06T12:31:44.910Z,40.94
2018-10-06T12:34:11.766Z,40.26
2018-10-06T12:36:38.664Z,40.10
2018-10-06T12:39:05.929Z,40.12
2018-10-06T12:41:32.813Z,40.51
2018-10-06T12:43:59.680Z,40.17
2018-10-06T12:46:26.744Z,40.02
2018-10-06T12:48:53.587Z,39.81
2018-10-06T12:51:20.429Z,40.62
2018-10-06T12:53:47.447Z,40.56
2018-10-06T12:56:14.301Z,39.99
2018-10-06T12:58:41.183Z,39.77
2018-10-06T13:01:08.145Z,39.53
2018-10-06T13:03:35.052Z,39.91
2018-10-06T13:06:01.897Z,40.46
2018-10-06T13:08:28.930Z,40.54
2018-10-06T13:10:55.833Z,40.50
2018-10-06T13:13:22.684Z,40.66
2018-10-06T13:15:49.781Z,40.90
2018-10-06T13:18:16.688Z,40.52
2018-10-06T13:20:43.569Z,40.47
2018-10-06T13:23:10.597Z,40.43
2018-10-06T13:25:37.426Z,40.39
2018-10-06T13:28:04.246Z,40.11
2018-10-06T13:30:31.165Z,40.51
2018-10-06T13:32:58.102Z,40.04
2018-10-06T13:35:25.092Z,40.12
2018-10-06T13:37:52.175Z,40.29
2018-10-06T13:40:19.102Z,39.91
2018-10-06T13:42:45.977Z,39.64
2018-10-06T13:45:12.907Z,39.42
2018-10-06T13:47:39.784Z,39.52
2018-10-06T13:50:06.707Z,39.51
2018-10-06T13:52:34.315Z,39.53
2018-10-06T13:55:01.127Z,39.13
2018-10-06T13:57:28.073Z,39.75
2018-10-06T13:59:55.323Z,39.84
2018-10-06T14:02:22.176Z,39.79
2018-10-06T14:04:49.049Z,40.12
2018-10-06T14:07:16.146Z,40.17
2018-10-06T14:09:43.031Z,40.38
2018-10-06T14:12:09.921Z,39.93
2018-10-06T14:14:36.864Z,40.38
2018-10-06T14:17:04.669Z,40.10
2018-10-06T14:19:31.573Z,40.42
2018-10-06T14:21:58.493Z,40.34
2018-10-06T14:24:25.429Z,40.12
2018-10-06T14:26:52.302Z,39.84
2018-10-06T14:29:19.267Z,40.47
2018-10-06T14:31:46.131Z,40.73
2018-10-06T14:34:13.017Z,40.23
2018-10-06T14:36:40.098Z,39.97
2018-10-06T14:39:07.607Z,39.75
2018-10-06T14:41:35.164Z,39.43
2018-10-06T14:44:02.224Z,38.98
2018-10-06T14:46:29.119Z,38.94
2018-10-06T14:48:55.967Z,39.02
2018-10-06T14:51:22.988Z,38.74
2018-10-06T14:53:49.894Z,39.31
2018-10-06T14:56:16.731Z,39.16
2018-10-06T14:58:43.811Z,39.25
2018-10-06T15:01:10.685Z,39.25
2018-10-06T15:03:37.539Z,39.58
2018-10-06T15:06:04.608Z,39.73
2018-10-06T15:08:32.112Z,40.01
2018-10-06T15:10:59.530Z,40.44
2018-10-06T15:13:27.180Z,40.31
2018-10-06T15:15:54.704Z,40.12
2018-10-06T15:18:22.209Z,40.57
2018-10-06T15:20:49.825Z,40.73
2018-10-06T15:23:17.308Z,41.16
2018-10-06T15:25:44.881Z,40.58
2018-10-06T15:28:12.741Z,40.98
2018-10-06T15:30:40.194Z,41.10
2018-10-06T15:33:07.718Z,41.43
2018-10-06T15:35:35.417Z,41.33
2018-10-06T15:38:02.921Z,41.45
2018-10-06T15:40:30.386Z,41.71
2018-10-06T15:42:58.148Z,41.57
2018-10-06T15:45:25.612Z,41.14
2018-10-06T15:47:53.075Z,41.56
2018-10-06T15:50:20.844Z,41.02
2018-10-06T15:52:48.340Z,41.19
2018-10-06T15:55:15.800Z,40.95
2018-10-06T15:57:43.342Z,41.05
2018-10-06T16:00:10.923Z,41.14
2018-10-06T16:02:38.482Z,41.21
2018-10-06T16:05:06.225Z,41.22
2018-10-06T16:07:33.701Z,41.00
2018-10-06T16:10:01.223Z,41.28
2018-10-06T16:12:28.871Z,41.35
2018-10-06T16:14:56.390Z,41.23
2018-10-06T16:17:23.851Z,41.26
2018-10-06T16:19:51.815Z,41.32
2018-10-06T16:22:19.274Z,41.26
2018-10-06T16:24:46.777Z,41.63
2018-10-06T16:27:14.612Z,41.36
2018-10-06T16:29:42.157Z,41.62
2018-10-06T16:32:09.689Z,41.99
2018-10-06T16:34:36.687Z,41.58
2018-10-06T16:37:03.603Z,42.04
2018-10-06T16:39:30.499Z,42.23
2018-10-06T16:41:57.654Z,41.63
2018-10-06T16:44:24.656Z,41.87
2018-10-06T16:46:51.582Z,41.95
2018-10-06T16:49:18.649Z,42.11
2018-10-06T16:51:45.573Z,42.57
2018-10-06T16:54:12.404Z,42.33
2018-10-06T16:56:39.613Z,42.39
2018-10-06T16:59:06.534Z,42.57
2018-10-06T17:01:33.424Z,43.15
2018-10-06T17:04:00.417Z,42.94
2018-10-06T17:06:27.431Z,43.31
2018-10-06T17:08:54.257Z,43.24
2018-10-06T17:11:21.569Z,43.19
2018-10-06T17:13:48.416Z,43.23
2018-10-06T17:16:15.244Z,43.68
2018-10-06T17:18:42.467Z,43.99
2018-10-06T17:21:09.376Z,44.08
2018-10-06T17:24:02.424Z,43.97
2018-10-06T17:26:29.440Z,44.71
2018-10-06T17:28:56.406Z,44.47
2018-10-06T17:31:23.410Z,45.19
2018-10-06T17:33:50.243Z,45.62
2018-10-06T17:36:17.197Z,45.55
2018-10-06T17:38:44.325Z,45.57
2018-10-06T17:41:11.227Z,46.15
2018-10-06T17:43:38.247Z,46.23
2018-10-06T17:46:05.381Z,46.56
2018-10-06T17:48:32.302Z,46.80
2018-10-06T17:50:59.475Z,46.83
2018-10-06T17:53:26.511Z,46.72
2018-10-06T17:55:53.437Z,47.38
2018-10-06T17:58:20.417Z,47.50
2018-10-06T18:00:47.437Z,47.39
2018-10-06T18:03:14.344Z,47.35
2018-10-06T18:05:41.316Z,47.64
2018-10-06T18:08:08.415Z,47.96
2018-10-06T18:10:35.311Z,48.12
2018-10-06T18:13:02.353Z,48.52
2018-10-06T18:15:29.336Z,48.71
2018-10-06T18:17:56.291Z,48.17
2018-10-06T18:20:23.534Z,48.55
2018-10-06T18:22:51.099Z,48.79
2018-10-06T18:25:18.368Z,49.05
2018-10-06T18:27:45.559Z,49.23
2018-10-06T18:30:12.688Z,49.49
2018-10-06T18:32:39.583Z,49.39
2018-10-06T18:35:06.454Z,49.32
2018-10-06T18:37:33.505Z,49.57
2018-10-06T18:40:00.358Z,49.88
2018-10-06T18:42:27.245Z,50.07
2018-10-06T18:44:54.328Z,50.11
2018-10-06T18:47:21.226Z,50.59
2018-10-06T18:49:48.106Z,50.34
2018-10-06T18:52:15.093Z,50.66
2018-10-06T18:54:41.944Z,50.83
2018-10-06T18:57:08.929Z,51.19
2018-10-06T18:59:35.948Z,51.27
2018-10-06T19:02:02.806Z,51.26
2018-10-06T19:04:29.707Z,51.26
2018-10-06T19:06:56.607Z,51.38
2018-10-06T19:09:23.737Z,51.49
2018-10-06T19:11:50.629Z,51.55
2018-10-06T19:14:48.094Z,51.80
2018-10-06T19:17:14.999Z,51.46
2018-10-06T19:19:41.945Z,51.74
2018-10-06T19:22:08.822Z,51.78
2018-10-06T19:24:35.882Z,52.32
2018-10-06T19:27:02.729Z,52.20
2018-10-06T19:29:29.822Z,52.05
2018-10-06T19:31:56.669Z,52.15
2018-10-06T19:34:23.604Z,52.60
2018-10-06T19:36:50.768Z,52.78
2018-10-06T19:39:17.679Z,52.65
2018-10-06T19:41:44.617Z,53.15
2018-10-06T19:44:12.348Z,53.10
2018-10-06T19:46:39.852Z,53.26
2018-10-06T19:49:07.348Z,53.28
2018-10-06T19:51:35.169Z,53.27
2018-10-06T19:54:02.705Z,53.66
2018-10-06T19:56:30.207Z,53.69
2018-10-06T19:58:57.882Z,53.63
2018-10-06T20:01:25.389Z,54.08
2018-10-06T20:03:52.998Z,53.93
2018-10-06T20:06:20.697Z,54.14
2018-10-06T20:08:48.212Z,54.14
2018-10-06T20:11:15.692Z,54.41
2018-10-06T20:13:43.310Z,54.61
2018-10-06T20:16:10.833Z,54.39
2018-10-06T20:18:38.362Z,54.50
2018-10-06T20:21:06.120Z,54.58
2018-10-06T20:23:33.629Z,54.64
2018-10-06T20:26:01.553Z,54.80
2018-10-06T20:28:29.402Z,54.91
2018-10-06T20:30:56.903Z,54.86
2018-10-06T20:33:24.572Z,55.15
2018-10-06T20:35:52.240Z,54.97
2018-10-06T20:38:19.700Z,54.86
2018-10-06T20:40:47.192Z,54.84
2018-10-06T20:43:14.859Z,55.19
2018-10-06T20:45:41.796Z,55.15
2018-10-06T20:48:09.294Z,55.19
2018-10-06T20:50:36.859Z,55.26
2018-10-06T20:53:04.656Z,55.50
2018-10-06T20:55:32.187Z,55.59
2018-10-06T20:57:59.076Z,55.66
2018-10-06T21:00:26.121Z,55.81
2018-10-06T21:02:52.978Z,55.71
2018-10-06T21:05:20.482Z,55.82
2018-10-06T21:07:47.541Z,56.02
2018-10-06T21:10:14.531Z,55.99
2018-10-06T21:12:41.390Z,55.88
2018-10-06T21:15:08.545Z,56.20
2018-10-06T21:17:36.146Z,56.06
2018-10-06T21:20:03.710Z,56.37
2018-10-06T21:22:31.271Z,56.32
2018-10-06T21:24:58.782Z,56.41
2018-10-06T21:27:26.364Z,56.49
2018-10-06T21:29:53.950Z,56.69
2018-10-06T21:32:21.519Z,56.75
2018-10-06T21:34:49.063Z,56.80
2018-10-06T21:37:16.727Z,56.81
2018-10-06T21:39:44.230Z,56.87
2018-10-06T21:42:11.764Z,57.11
2018-10-06T21:44:39.601Z,57.26
2018-10-06T21:47:07.179Z,57.05
2018-10-06T21:49:34.721Z,57.07
2018-10-06T21:52:02.579Z,57.04
2018-10-06T21:54:30.062Z,56.97
2018-10-06T21:56:57.675Z,57.32
2018-10-06T21:59:25.297Z,57.24
2018-10-06T22:01:52.802Z,57.33
2018-10-06T22:04:20.352Z,57.33
2018-10-06T22:06:47.912Z,57.60
2018-10-06T22:09:15.468Z,57.60
2018-10-06T22:11:42.957Z,57.25
2018-10-06T22:14:10.534Z,57.57
2018-10-06T22:16:37.984Z,57.64
2018-10-06T22:19:05.526Z,57.73
2018-10-06T22:21:33.163Z,57.70
2018-10-06T22:24:00.665Z,57.91
2018-10-06T22:26:28.150Z,57.79
2018-10-06T22:28:55.965Z,58.09
2018-10-06T22:31:23.518Z,57.85
2018-10-06T22:33:51.035Z,58.03
2018-10-06T22:36:18.745Z,58.20
2018-10-06T22:38:46.264Z,57.91
2018-10-06T22:41:13.733Z,58.14
2018-10-06T22:43:41.348Z,58.19
2018-10-06T22:46:08.892Z,58.33
2018-10-06T22:48:36.401Z,58.37
2018-10-06T22:51:04.028Z,58.51
2018-10-06T22:53:31.694Z,58.33
2018-10-06T22:55:59.192Z,58.31
2018-10-06T22:58:27.053Z,58.37
2018-10-06T23:00:54.526Z,58.51
2018-10-06T23:03:22.101Z,58.41
2018-10-06T23:05:49.722Z,58.36
2018-10-06T23:08:17.322Z,58.75
2018-10-06T23:10:44.973Z,58.75
2018-10-06T23:13:12.715Z,58.50
2018-10-06T23:15:40.235Z,58.67
2018-10-06T23:18:07.739Z,58.70
2018-10-06T23:20:35.509Z,58.68
2018-10-06T23:23:03.033Z,58.70
2018-10-06T23:25:30.497Z,58.75
2018-10-06T23:27:58.197Z,58.63
2018-10-06T23:30:25.888Z,58.89
2018-10-06T23:32:53.536Z,58.55
2018-10-06T23:35:21.192Z,58.70
2018-10-06T23:37:48.728Z,58.78
2018-10-06T23:40:16.182Z,58.91
2018-10-06T23:42:43.831Z,58.94
2018-10-06T23:45:11.364Z,59.07
2018-10-06T23:47:38.821Z,59.09
2018-10-06T23:50:06.621Z,59.09
2018-10-06T23:52:34.094Z,59.12
2018-10-06T23:55:01.565Z,59.27
2018-10-06T23:57:29.312Z,59.01
2018-10-06T23:59:56.880Z,59.03
